createdAt,value
2022-08-31T00:02:41.098Z,79.05
2022-08-31T00:05:08.983Z,79.05
2022-08-31T00:07:35.580Z,78.70
2022-08-31T00:10:14.202Z,78.69
2022-08-31T00:12:46.298Z,78.80
2022-08-31T00:15:17.127Z,78.81
2022-08-31T00:17:44.297Z,78.56
2022-08-31T00:20:32.444Z,78.42
2022-08-31T00:23:00.201Z,78.30
2022-08-31T00:25:26.735Z,78.50
2022-08-31T00:27:55.587Z,78.38
2022-08-31T00:30:22.452Z,78.45
2022-08-31T00:32:48.971Z,78.46
2022-08-31T00:35:16.594Z,78.33
2022-08-31T00:37:43.342Z,78.06
2022-08-31T00:40:10.874Z,78.08
2022-08-31T00:42:37.956Z,78.32
2022-08-31T00:45:06.195Z,78.29
2022-08-31T00:47:32.769Z,78.69
2022-08-31T00:50:00.589Z,78.25
2022-08-31T00:52:37.714Z,78.02
2022-08-31T00:55:11.416Z,78.30
2022-08-31T00:57:41.513Z,78.32
2022-08-31T01:00:14.145Z,77.87
2022-08-31T01:02:41.488Z,78.00
2022-08-31T01:05:09.873Z,78.19
2022-08-31T01:07:37.154Z,78.14
2022-08-31T01:10:05.267Z,78.27
2022-08-31T01:12:32.159Z,78.20
2022-08-31T01:15:02.872Z,78.33
2022-08-31T01:17:32.561Z,78.56
2022-08-31T01:20:11.546Z,78.74
2022-08-31T01:23:02.042Z,79.17
2022-08-31T01:25:33.720Z,79.11
2022-08-31T01:28:04.515Z,79.26
2022-08-31T01:30:31.705Z,79.40
2022-08-31T01:32:58.693Z,80.10
2022-08-31T01:35:25.670Z,80.29
2022-08-31T01:37:53.317Z,80.51
2022-08-31T01:40:20.009Z,80.32
2022-08-31T01:42:46.693Z,81.47
2022-08-31T01:45:14.772Z,81.59
2022-08-31T01:47:41.618Z,81.40
2022-08-31T01:50:09.035Z,81.36
2022-08-31T01:52:37.866Z,81.85
2022-08-31T01:55:06.931Z,82.15
2022-08-31T01:57:34.716Z,82.28
2022-08-31T02:00:24.878Z,82.37
2022-08-31T02:02:51.521Z,82.66
2022-08-31T02:05:19.295Z,82.92
2022-08-31T02:07:45.966Z,83.22
2022-08-31T02:10:12.499Z,83.17
2022-08-31T02:12:39.789Z,83.42
2022-08-31T02:15:08.380Z,83.45
2022-08-31T02:17:34.946Z,83.60
2022-08-31T02:20:08.937Z,83.81
2022-08-31T02:22:35.989Z,84.48
2022-08-31T02:25:03.129Z,84.62
2022-08-31T02:27:29.684Z,84.61
2022-08-31T02:29:56.337Z,85.19
2022-08-31T02:32:24.087Z,85.00
2022-08-31T02:34:51.069Z,85.56
2022-08-31T02:37:18.709Z,85.22
2022-08-31T02:39:47.625Z,85.82
2022-08-31T02:42:16.412Z,85.69
2022-08-31T02:44:45.329Z,85.64
2022-08-31T02:47:11.861Z,85.26
2022-08-31T02:49:50.070Z,85.91
2022-08-31T02:52:16.598Z,85.71
2022-08-31T02:54:44.300Z,85.45
2022-08-31T02:57:12.077Z,85.73
2022-08-31T02:59:38.674Z,86.23
2022-08-31T03:02:06.651Z,86.19
2022-08-31T03:04:35.958Z,86.53
2022-08-31T03:07:02.937Z,86.55
2022-08-31T03:09:29.676Z,86.44
2022-08-31T03:11:56.192Z,87.04
2022-08-31T03:14:22.701Z,86.90
2022-08-31T03:16:51.943Z,87.33
2022-08-31T03:19:20.812Z,87.32
2022-08-31T03:21:47.482Z,87.31
2022-08-31T03:24:19.300Z,87.37
2022-08-31T03:26:49.834Z,87.75
2022-08-31T03:29:16.503Z,88.14
2022-08-31T03:32:03.285Z,88.18
2022-08-31T03:34:29.923Z,88.65
2022-08-31T03:36:56.475Z,88.89
2022-08-31T03:39:23.184Z,89.14
2022-08-31T03:41:49.903Z,89.25
2022-08-31T03:44:23.262Z,89.62
2022-08-31T03:46:50.806Z,89.52
2022-08-31T03:49:18.754Z,89.64
2022-08-31T03:52:02.221Z,90.08
2022-08-31T03:54:32.013Z,89.75
2022-08-31T03:56:58.633Z,90.45
2022-08-31T03:59:25.380Z,90.58
2022-08-31T04:02:27.436Z,90.77
2022-08-31T04:05:14.097Z,90.46
2022-08-31T04:07:59.612Z,90.72
2022-08-31T04:11:07.565Z,91.15
2022-08-31T04:14:00.306Z,91.17
2022-08-31T04:16:45.662Z,91.40
2022-08-31T04:19:35.262Z,91.70
2022-08-31T04:22:15.232Z,91.86
2022-08-31T04:24:55.850Z,91.98
2022-08-31T04:27:22.424Z,91.97
2022-08-31T04:29:48.991Z,92.39
2022-08-31T04:32:15.767Z,92.55
2022-08-31T04:34:42.381Z,92.98
2022-08-31T04:37:10.343Z,93.05
2022-08-31T04:39:50.559Z,93.11
2022-08-31T04:42:17.817Z,93.72
2022-08-31T04:44:44.397Z,93.78
2022-08-31T04:47:10.867Z,93.82
2022-08-31T04:49:37.475Z,93.76
2022-08-31T04:52:04.023Z,94.21
2022-08-31T04:54:30.624Z,93.66
2022-08-31T04:56:59.117Z,94.15
2022-08-31T04:59:30.776Z,94.26
2022-08-31T05:02:36.584Z,94.50
2022-08-31T05:05:12.526Z,94.64
2022-08-31T05:07:39.395Z,94.56
2022-08-31T05:10:07.020Z,94.75
2022-08-31T05:12:33.625Z,94.93
2022-08-31T05:15:00.174Z,94.93
2022-08-31T05:17:27.972Z,94.70
2022-08-31T05:19:54.639Z,94.92
2022-08-31T05:22:21.284Z,94.86
2022-08-31T05:24:51.012Z,94.95
2022-08-31T05:27:22.594Z,94.86
2022-08-31T05:29:49.121Z,94.86
2022-08-31T05:32:38.627Z,94.83
2022-08-31T05:35:07.329Z,95.01
2022-08-31T05:37:33.907Z,94.91
2022-08-31T05:40:00.762Z,94.73
2022-08-31T05:42:27.367Z,94.46
2022-08-31T05:44:57.080Z,94.37
2022-08-31T05:47:24.055Z,93.93
2022-08-31T05:49:50.799Z,93.80
2022-08-31T05:52:20.051Z,93.67
2022-08-31T05:54:51.940Z,92.98
2022-08-31T05:57:18.491Z,92.52
2022-08-31T05:59:45.379Z,92.60
2022-08-31T06:02:12.036Z,92.16
2022-08-31T06:04:39.250Z,92.03
2022-08-31T06:07:05.982Z,92.22
2022-08-31T06:09:42.785Z,92.11
2022-08-31T06:12:10.722Z,91.99
2022-08-31T06:14:38.869Z,91.51
2022-08-31T06:17:05.794Z,91.75
2022-08-31T06:19:32.757Z,91.95
2022-08-31T06:21:59.686Z,91.51
2022-08-31T06:24:26.823Z,91.56
2022-08-31T06:26:58.950Z,91.43
2022-08-31T06:29:32.106Z,91.49
2022-08-31T06:32:00.560Z,91.25
2022-08-31T06:34:29.222Z,91.41
2022-08-31T06:37:05.738Z,90.93
2022-08-31T06:39:32.278Z,90.69
2022-08-31T06:42:24.993Z,90.17
2022-08-31T06:45:09.938Z,90.02
2022-08-31T06:47:53.595Z,89.90
2022-08-31T06:50:20.185Z,89.60
2022-08-31T06:52:48.850Z,89.49
2022-08-31T06:55:22.027Z,89.17
2022-08-31T06:58:20.604Z,89.25
2022-08-31T07:01:35.841Z,88.73
2022-08-31T07:04:11.916Z,88.53
2022-08-31T07:06:42.479Z,87.98
2022-08-31T07:09:15.797Z,87.67
2022-08-31T07:11:45.459Z,87.68
2022-08-31T07:14:14.921Z,87.30
2022-08-31T07:16:44.227Z,86.54
2022-08-31T07:19:12.484Z,85.56
2022-08-31T07:21:46.020Z,85.49
2022-08-31T07:24:14.610Z,84.84
2022-08-31T07:26:46.639Z,84.35
2022-08-31T07:29:18.366Z,84.17
2022-08-31T07:31:48.444Z,83.78
2022-08-31T07:34:21.116Z,83.13
2022-08-31T07:37:35.583Z,83.41
2022-08-31T07:40:21.405Z,82.60
2022-08-31T07:42:48.018Z,82.51
2022-08-31T07:45:22.880Z,82.01
2022-08-31T07:47:52.982Z,81.63
2022-08-31T07:50:22.991Z,80.63
2022-08-31T07:53:24.874Z,80.40
2022-08-31T07:56:11.496Z,80.19
2022-08-31T07:58:42.670Z,79.82
2022-08-31T08:01:10.713Z,79.24
2022-08-31T08:03:44.072Z,78.71
2022-08-31T08:06:32.833Z,78.25
2022-08-31T08:09:24.392Z,77.99
2022-08-31T08:12:22.628Z,78.20
2022-08-31T08:14:59.945Z,77.54
2022-08-31T08:17:39.083Z,78.07
2022-08-31T08:20:13.465Z,77.70
2022-08-31T08:22:54.286Z,77.36
2022-08-31T08:25:34.732Z,77.51
2022-08-31T08:28:39.043Z,76.87
2022-08-31T08:31:07.572Z,76.22
2022-08-31T08:33:35.861Z,76.20
2022-08-31T08:36:07.512Z,76.31
2022-08-31T08:38:38.922Z,75.69
2022-08-31T08:41:11.844Z,75.32
2022-08-31T08:43:43.759Z,74.75
2022-08-31T08:46:33.444Z,73.76
2022-08-31T08:49:10.859Z,73.13
2022-08-31T08:51:38.928Z,73.98
2022-08-31T08:54:35.558Z,73.80
2022-08-31T08:57:14.204Z,72.99
2022-08-31T08:59:43.842Z,72.31
2022-08-31T09:02:22.101Z,71.51
2022-08-31T09:05:04.307Z,71.21
2022-08-31T09:08:25.690Z,70.25
2022-08-31T09:11:08.826Z,69.10
2022-08-31T09:13:58.707Z,69.17
2022-08-31T09:16:40.818Z,68.61
2022-08-31T09:19:12.858Z,68.63
2022-08-31T09:21:53.036Z,68.02
2022-08-31T09:24:27.462Z,66.99
2022-08-31T09:27:19.127Z,66.58
2022-08-31T09:29:53.384Z,66.61
2022-08-31T09:32:29.174Z,66.40
2022-08-31T09:35:30.788Z,64.98
2022-08-31T09:38:02.566Z,63.31
2022-08-31T09:40:53.200Z,62.18
2022-08-31T09:43:25.109Z,62.27
2022-08-31T09:46:11.705Z,61.74
2022-08-31T09:48:56.191Z,61.29
2022-08-31T09:51:34.745Z,61.60
2022-08-31T09:54:37.365Z,61.37
2022-08-31T09:57:10.718Z,61.01
2022-08-31T09:59:49.320Z,60.41
2022-08-31T10:02:37.882Z,59.73
2022-08-31T10:05:25.991Z,59.92
2022-08-31T10:08:04.160Z,59.99
2022-08-31T10:10:35.805Z,58.09
2022-08-31T10:13:08.455Z,56.34
2022-08-31T10:16:02.087Z,56.15
2022-08-31T10:18:57.773Z,55.94
2022-08-31T10:21:39.629Z,55.79
2022-08-31T10:24:20.881Z,53.84
2022-08-31T10:27:08.250Z,54.82
2022-08-31T10:29:48.537Z,55.72
2022-08-31T10:32:30.401Z,56.15
2022-08-31T10:35:20.528Z,55.41
2022-08-31T10:38:00.920Z,54.51
2022-08-31T10:40:32.155Z,55.61
2022-08-31T10:43:10.098Z,55.06
2022-08-31T10:45:43.757Z,55.09
2022-08-31T10:48:12.985Z,53.92
2022-08-31T10:51:14.187Z,54.36
2022-08-31T10:54:04.125Z,52.82
2022-08-31T10:56:41.438Z,53.80
2022-08-31T10:59:10.724Z,54.23
2022-08-31T11:01:51.360Z,53.19
2022-08-31T11:04:48.728Z,54.37
2022-08-31T11:07:31.057Z,54.21
2022-08-31T11:10:05.780Z,53.16
2022-08-31T11:12:46.307Z,53.91
2022-08-31T11:15:49.828Z,54.06
2022-08-31T11:18:43.983Z,54.55
2022-08-31T11:21:39.418Z,52.87
2022-08-31T11:24:22.023Z,52.17
2022-08-31T11:26:57.654Z,53.06
2022-08-31T11:29:46.273Z,53.82
2022-08-31T11:32:34.543Z,53.62
2022-08-31T11:35:08.335Z,53.26
2022-08-31T11:37:54.437Z,52.27
2022-08-31T11:40:42.686Z,51.87
2022-08-31T11:43:35.310Z,51.51
2022-08-31T11:46:27.260Z,52.23
2022-08-31T11:48:54.608Z,51.91
2022-08-31T11:51:37.290Z,52.95
2022-08-31T11:54:26.537Z,52.92
2022-08-31T11:56:56.681Z,52.59
2022-08-31T11:59:32.720Z,52.55
2022-08-31T12:02:19.350Z,52.71
2022-08-31T12:04:51.082Z,52.21
2022-08-31T12:07:24.838Z,52.34
2022-08-31T12:09:54.346Z,51.92
2022-08-31T12:12:53.011Z,50.08
2022-08-31T12:15:33.157Z,50.36
2022-08-31T12:18:16.902Z,49.20
2022-08-31T12:21:27.769Z,48.89
2022-08-31T12:24:18.748Z,47.92
2022-08-31T12:27:17.683Z,47.04
2022-08-31T12:29:45.456Z,47.29
2022-08-31T12:32:11.880Z,47.33
2022-08-31T12:34:48.895Z,47.24
2022-08-31T12:37:23.986Z,48.09
2022-08-31T12:40:10.897Z,48.04
2022-08-31T12:43:03.168Z,47.49
2022-08-31T12:46:07.312Z,47.41
2022-08-31T12:48:57.114Z,45.54
2022-08-31T12:51:57.594Z,46.32
2022-08-31T12:54:39.562Z,46.38
2022-08-31T12:57:15.138Z,46.46
2022-08-31T13:00:05.062Z,45.86
2022-08-31T13:02:34.952Z,45.78
2022-08-31T13:05:02.454Z,45.67
2022-08-31T13:07:34.702Z,45.71
2022-08-31T13:10:13.792Z,44.90
2022-08-31T13:12:49.574Z,45.63
2022-08-31T13:15:48.589Z,46.00
2022-08-31T13:18:21.956Z,46.05
2022-08-31T13:20:54.701Z,45.79
2022-08-31T13:23:30.436Z,45.85
2022-08-31T13:26:21.071Z,45.52
2022-08-31T13:28:57.338Z,45.06
2022-08-31T13:31:30.749Z,44.40
2022-08-31T13:34:03.489Z,44.13
2022-08-31T13:36:37.141Z,43.79
2022-08-31T13:39:20.883Z,43.71
2022-08-31T13:42:06.059Z,43.79
2022-08-31T13:44:39.326Z,44.05
2022-08-31T13:47:20.305Z,43.22
2022-08-31T13:49:49.813Z,43.45
2022-08-31T13:52:28.210Z,42.55
2022-08-31T13:55:04.759Z,43.39
2022-08-31T13:57:32.874Z,43.32
2022-08-31T14:00:42.480Z,43.28
2022-08-31T14:03:32.031Z,43.07
2022-08-31T14:06:26.204Z,43.11
2022-08-31T14:09:17.044Z,40.71
2022-08-31T14:11:53.525Z,41.77
2022-08-31T14:14:35.558Z,42.61
2022-08-31T14:17:03.413Z,43.17
2022-08-31T14:19:36.675Z,42.43
2022-08-31T14:22:27.213Z,42.44
2022-08-31T14:24:56.835Z,42.20
2022-08-31T14:27:24.218Z,41.08
2022-08-31T14:29:52.150Z,41.50
2022-08-31T14:32:20.050Z,41.50
2022-08-31T14:34:50.016Z,41.46
2022-08-31T14:37:23.093Z,41.43
2022-08-31T14:39:53.632Z,41.57
2022-08-31T14:42:25.574Z,41.81
2022-08-31T14:44:57.720Z,41.47
2022-08-31T14:47:27.748Z,41.90
2022-08-31T14:49:57.256Z,41.77
2022-08-31T14:52:27.970Z,41.93
2022-08-31T14:54:54.557Z,41.67
2022-08-31T14:57:25.365Z,41.36
2022-08-31T14:59:57.586Z,41.37
2022-08-31T15:02:26.298Z,41.73
2022-08-31T15:04:52.868Z,41.61
2022-08-31T15:07:19.848Z,41.75
2022-08-31T15:09:47.812Z,42.30
2022-08-31T15:12:17.090Z,42.25
2022-08-31T15:14:45.041Z,41.49
2022-08-31T15:17:18.811Z,41.58
2022-08-31T15:19:46.090Z,42.03
2022-08-31T15:22:12.589Z,42.30
2022-08-31T15:24:46.664Z,41.24
2022-08-31T15:27:15.418Z,41.51
2022-08-31T15:29:47.323Z,41.71
2022-08-31T15:32:17.317Z,41.70
2022-08-31T15:34:57.934Z,41.77
2022-08-31T15:37:31.886Z,41.62
2022-08-31T15:40:02.032Z,41.56
2022-08-31T15:42:31.397Z,41.39
2022-08-31T15:44:58.383Z,41.52
2022-08-31T15:47:46.369Z,41.54
2022-08-31T15:50:13.064Z,41.09
2022-08-31T15:52:39.864Z,41.57
2022-08-31T15:55:07.574Z,40.57
2022-08-31T15:57:34.368Z,39.38
2022-08-31T16:00:00.940Z,36.82
2022-08-31T16:02:27.644Z,34.41
2022-08-31T16:04:57.744Z,34.15
2022-08-31T16:07:25.215Z,32.76
2022-08-31T16:09:52.159Z,32.03
2022-08-31T16:12:20.167Z,31.87
2022-08-31T16:14:47.438Z,30.65
2022-08-31T16:17:19.154Z,28.46
2022-08-31T16:19:47.439Z,28.21
2022-08-31T16:22:14.423Z,27.76
2022-08-31T16:24:41.825Z,26.77
2022-08-31T16:27:12.500Z,25.87
2022-08-31T16:29:43.158Z,24.93
2022-08-31T16:32:10.137Z,24.52
2022-08-31T16:34:38.962Z,24.48
2022-08-31T16:37:07.810Z,24.45
2022-08-31T16:39:37.133Z,24.34
2022-08-31T16:42:11.111Z,24.35
2022-08-31T16:44:39.225Z,23.26
2022-08-31T16:47:08.204Z,23.35
2022-08-31T16:49:36.216Z,23.64
2022-08-31T16:52:09.997Z,23.77
2022-08-31T16:54:42.704Z,23.55
2022-08-31T16:57:12.786Z,23.69
2022-08-31T16:59:43.353Z,24.08
2022-08-31T17:02:12.071Z,24.17
2022-08-31T17:04:52.108Z,25.35
2022-08-31T17:07:19.766Z,26.02
2022-08-31T17:09:46.450Z,27.22
2022-08-31T17:12:16.447Z,27.89
2022-08-31T17:14:48.364Z,28.70
2022-08-31T17:17:18.297Z,29.56
2022-08-31T17:19:45.789Z,30.18
2022-08-31T17:22:21.538Z,31.07
2022-08-31T17:24:50.947Z,31.74
2022-08-31T17:27:20.204Z,32.08
2022-08-31T17:29:49.912Z,32.54
2022-08-31T17:32:19.130Z,33.01
2022-08-31T17:34:51.292Z,34.03
2022-08-31T17:37:26.029Z,34.54
2022-08-31T17:39:56.359Z,35.10
2022-08-31T17:42:27.125Z,35.57
2022-08-31T17:44:54.677Z,35.80
2022-08-31T17:47:23.911Z,36.32
2022-08-31T17:49:51.153Z,37.01
2022-08-31T17:52:20.621Z,37.44
2022-08-31T17:54:50.519Z,38.04
2022-08-31T17:57:18.214Z,38.50
2022-08-31T17:59:48.941Z,38.79
2022-08-31T18:02:19.050Z,39.29
2022-08-31T18:04:46.128Z,39.69
2022-08-31T18:07:13.141Z,40.10
2022-08-31T18:09:44.214Z,40.61
2022-08-31T18:12:11.535Z,40.92
2022-08-31T18:14:38.935Z,41.30
2022-08-31T18:17:10.253Z,41.77
2022-08-31T18:19:37.966Z,42.20
2022-08-31T18:22:05.246Z,42.75
2022-08-31T18:24:36.977Z,42.97
2022-08-31T18:27:07.149Z,43.41
2022-08-31T18:29:35.849Z,43.41
2022-08-31T18:32:05.251Z,43.96
2022-08-31T18:34:39.048Z,44.21
2022-08-31T18:37:06.737Z,44.50
2022-08-31T18:39:59.076Z,45.02
2022-08-31T18:42:45.701Z,45.35
2022-08-31T18:45:20.971Z,45.66
2022-08-31T18:50:49.264Z,46.58
2022-08-31T18:53:29.535Z,46.95
2022-08-31T18:56:04.379Z,47.22
2022-08-31T18:58:31.041Z,47.60
2022-08-31T19:00:58.934Z,47.92
2022-08-31T19:03:27.610Z,48.07
2022-08-31T19:05:55.239Z,48.70
2022-08-31T19:08:21.874Z,48.76
2022-08-31T19:10:49.140Z,49.04
2022-08-31T19:13:16.164Z,49.64
2022-08-31T19:15:43.049Z,50.22
2022-08-31T19:18:09.707Z,50.64
2022-08-31T19:20:36.892Z,50.84
2022-08-31T19:23:03.682Z,51.25
2022-08-31T19:25:32.046Z,51.64
2022-08-31T19:28:01.543Z,51.92
2022-08-31T19:30:28.901Z,52.45
2022-08-31T19:32:56.562Z,52.49
2022-08-31T19:35:26.931Z,52.92
2022-08-31T19:37:55.558Z,52.89
2022-08-31T19:40:22.854Z,53.23
2022-08-31T19:45:45.576Z,53.59
2022-08-31T19:48:13.191Z,54.42
2022-08-31T19:50:42.356Z,54.65
2022-08-31T19:53:12.689Z,55.28
2022-08-31T19:55:53.490Z,55.72
2022-08-31T19:58:26.578Z,55.74
2022-08-31T20:01:00.725Z,56.36
2022-08-31T20:03:28.366Z,56.44
2022-08-31T20:05:56.961Z,56.47
2022-08-31T20:08:23.656Z,57.07
2022-08-31T20:10:50.398Z,57.33
2022-08-31T20:13:21.604Z,57.77
2022-08-31T20:15:48.414Z,58.08
2022-08-31T20:18:15.183Z,58.09
2022-08-31T20:20:45.885Z,58.08
2022-08-31T20:23:17.051Z,58.37
2022-08-31T20:25:49.403Z,58.47
2022-08-31T20:28:17.776Z,58.27
2022-08-31T20:30:45.008Z,58.82
2022-08-31T20:33:12.135Z,58.99
2022-08-31T20:35:47.610Z,59.30
2022-08-31T20:38:15.956Z,59.38
2022-08-31T20:40:44.514Z,59.64
2022-08-31T20:43:12.821Z,59.57
2022-08-31T20:45:41.432Z,59.97
2022-08-31T20:48:28.037Z,60.31
2022-08-31T20:50:55.900Z,60.93
2022-08-31T20:53:35.962Z,61.31
2022-08-31T20:56:17.133Z,61.52
2022-08-31T20:58:45.573Z,61.70
2022-08-31T21:01:14.000Z,62.33
2022-08-31T21:03:41.003Z,62.37
2022-08-31T21:06:11.134Z,62.75
2022-08-31T21:08:39.994Z,62.80
2022-08-31T21:11:24.864Z,63.32
2022-08-31T21:13:52.976Z,63.50
2022-08-31T21:16:20.219Z,63.51
2022-08-31T21:18:49.987Z,63.79
2022-08-31T21:21:17.656Z,63.81
2022-08-31T21:23:45.756Z,64.49
2022-08-31T21:26:21.552Z,64.64
2022-08-31T21:28:50.137Z,64.74
2022-08-31T21:31:29.075Z,65.41
2022-08-31T21:34:01.649Z,65.36
2022-08-31T21:36:33.075Z,65.54
2022-08-31T21:39:00.483Z,66.19
2022-08-31T21:41:29.211Z,66.53
2022-08-31T21:43:57.144Z,66.98
2022-08-31T21:46:26.600Z,66.93
2022-08-31T21:48:55.869Z,66.96
2022-08-31T21:51:25.877Z,67.56
2022-08-31T21:53:55.985Z,67.97
2022-08-31T21:56:25.900Z,68.19
2022-08-31T21:58:52.860Z,68.48
2022-08-31T22:01:20.367Z,69.25
2022-08-31T22:03:54.228Z,69.27
2022-08-31T22:06:30.936Z,70.06
2022-08-31T22:09:09.808Z,70.14
2022-08-31T22:11:40.040Z,70.43
2022-08-31T22:14:09.851Z,70.81
2022-08-31T22:16:39.147Z,71.09
2022-08-31T22:19:12.683Z,71.32
2022-08-31T22:21:42.873Z,71.95
2022-08-31T22:24:11.436Z,71.67
2022-08-31T22:26:53.317Z,72.34
2022-08-31T22:29:24.475Z,72.69
2022-08-31T22:31:52.844Z,72.87
2022-08-31T22:34:21.050Z,73.11
2022-08-31T22:36:50.746Z,73.29
2022-08-31T22:39:19.943Z,73.50
2022-08-31T22:41:47.233Z,73.93
2022-08-31T22:44:19.236Z,73.91
2022-08-31T22:46:46.705Z,74.31
2022-08-31T22:49:14.213Z,74.97
2022-08-31T22:51:42.509Z,75.20
2022-08-31T22:54:10.187Z,75.54
2022-08-31T22:56:38.800Z,75.98
2022-08-31T22:59:09.173Z,76.19
2022-08-31T23:02:01.955Z,76.48
2022-08-31T23:04:31.240Z,76.67
2022-08-31T23:06:59.034Z,76.85
2022-08-31T23:09:27.815Z,77.02
2022-08-31T23:11:56.331Z,77.25
2022-08-31T23:14:23.471Z,77.35
2022-08-31T23:16:57.750Z,77.73
2022-08-31T23:19:32.789Z,78.33
2022-08-31T23:22:00.862Z,78.63
2022-08-31T23:24:32.060Z,79.15
2022-08-31T23:27:04.365Z,79.39
2022-08-31T23:29:34.811Z,79.67
2022-08-31T23:32:01.488Z,79.57
2022-08-31T23:34:28.117Z,80.00
2022-08-31T23:36:55.644Z,80.39
2022-08-31T23:39:24.450Z,80.53
2022-08-31T23:41:53.353Z,80.46
2022-08-31T23:44:20.573Z,80.87
2022-08-31T23:46:47.251Z,81.12
2022-08-31T23:49:15.808Z,81.54
2022-08-31T23:51:42.576Z,81.92
2022-08-31T23:54:13.922Z,82.36
2022-08-31T23:56:42.728Z,82.52
2022-08-31T23:59:14.019Z,82.88
